• Join FlightAware (Why Join?)
  • Login
  • US Flag 
12:52PM EDT


 

Airport Tracker/Info


-or-


 

Live Flight TrackerFlight Track Log ✈ JBU33 ✈ 10-Aug-2013 ✈ KBTV - KJFK

Flight Track Log - Related Links

Times and Time Zones

All times are in EDT time to prevent confusion due to time zone crossing. See the JBU33 flight status page for this flight to view local times or setup timezone preferences in your user account.

Time Position Orientation Groundspeed Altitude Reporting Facility
EDT Latitude Longitude Course Direction KTS MPH feet Rate Location/Type
01:19PM 44.4892 -73.3275 190° South 245 282 6,400  Level Boston Center
01:20PM 44.1567 -73.2663 195° South  Level FlightAware Approximate
01:20PM 44.4408 -73.3792 217° Southwest 264 304 9,700  Level Boston Center
01:21PM 44.0787 -73.2955 195° South  Level FlightAware Approximate
01:21PM 44.3364 -73.4094 192° South 299 344 11,500  Level Boston Center
01:22PM 44.0003 -73.3222 194° South  Level FlightAware Approximate
01:22PM 44.2300 -73.4367 190° South 352 405 15,000  Level Boston Center
01:23PM 43.9217 -73.3483 193° South  Level FlightAware Approximate
01:23PM 44.1089 -73.4664 190° South 368 423 18,100  Level Boston Center
01:24PM 43.8292 -73.3611 190° South  Level Estimated
01:24PM 44.0044 -73.4964 192° South 377 434 20,500  Level Boston Center
01:25PM 43.9000 -73.5206 189° South 382 440 22,700 2,160 Climbing Boston Center
01:26PM 43.7933 -73.5503 191° South 387 445 24,800 1,620 Climbing Boston Center
01:27PM 43.6806 -73.5683 187° South 404 465 26,000 540 Climbing Boston Center
01:28PM 43.5783 -73.5836 186° South 410 472 26,000  Level Boston Center
01:29PM 43.4658 -73.5958 185° South 410 472 26,000  Level Boston Center
01:30PM 43.3531 -73.6108 186° South 405 466 26,000  Level Boston Center
01:31PM 43.2383 -73.6256 185° South 410 472 26,000  Level Boston Center
01:32PM 43.1111 -73.6403 185° South 416 479 26,000  Level Boston Center
01:33PM 42.9983 -73.6550 185° South 416 479 26,000  Level Boston Center
01:34PM 42.8856 -73.6700 186° South 416 479 26,000  Level Boston Center
01:35PM 42.7750 -73.6875 187° South 408 470 26,000  Level Boston Center
01:36PM 42.6622 -73.7022 185° South 408 470 26,000  Level Boston Center
01:37PM 42.5494 -73.7167 185° South 408 470 26,000  Level Boston Center
01:38PM 42.4494 -73.7317 186° South 408 470 26,000  Level Boston Center
01:39PM 42.3367 -73.7433 184° South 408 470 26,000  Level Boston Center
01:40PM 42.2239 -73.7578 185° South 408 470 26,000  Level Boston Center
01:41PM 42.1111 -73.7722 185° South 408 470 26,000  Level Boston Center
01:42PM 42.0006 -73.7867 186° South 408 470 26,000  Level Boston Center
01:45PM 41.7494 -73.8850 196° South 398 458 26,000 -240 Level New York Center
01:46PM 41.6481 -73.9358 201° Southwest 388 447 25,200 -1,560 Descending New York Center
01:47PM 41.5425 -73.9892 201° Southwest 375 432 22,900 -2,220 Descending New York Center
01:48PM 41.4456 -74.0342 199° South 375 432 20,800 -1,440 Descending New York Center
01:49PM 41.3425 -74.0706 195° South 375 432 20,000 -420 Descending New York Center
01:50PM 41.2358 -74.0903 188° South 375 432 20,000  Level New York Center
01:51PM 41.1292 -74.1042 186° South 386 444 20,000  Level New York Center
01:52PM 41.0500 -74.1167 187° South 385 443 20,000 -240 Level New York TRACON
01:53PM 40.9500 -74.1000 173° South 374 430 19,600 -900 Descending New York TRACON
01:54PM 40.8500 -74.0833 173° South 342 394 18,200 -1,560 Descending New York TRACON
01:55PM 40.7667 -74.0500 163° South 340 391 16,500 -1,740 Descending New York TRACON
01:56PM 40.6667 -74.0000 159° South 338 389 14,800 -1,680 Descending New York TRACON
01:57PM 40.5833 -73.9667 163° South 329 379 13,200 -960 Descending New York TRACON
01:58PM 40.5000 -73.9333 163° South 319 367 12,900 -1,200 Descending New York TRACON
01:59PM 40.4333 -73.9000 159° South 306 352 10,800 -2,160 Descending New York TRACON
02:00PM 40.3500 -73.8500 155° Southeast 308 354 8,600 -2,100 Descending New York TRACON
02:01PM 40.3167 -73.7500 114° Southeast 310 357 6,600 -1,980 Descending New York TRACON
02:02PM 40.2833 -73.6500 114° Southeast 295 339 4,700 -1,440 Descending New York TRACON
02:03PM 40.3000 -73.5500 78° East 263 303 3,600 -900 Descending New York TRACON
02:04PM 40.3500 -73.5167 27° Northeast 211 243 3,000 -360 Descending New York TRACON
02:05PM 40.4167 -73.4833 21° North 215 247 3,000  Level New York TRACON
02:06PM 40.4667 -73.4833 360° North 210 242 3,000  Level New York TRACON
02:07PM 40.5167 -73.5000 346° North 170 196 3,000  Level New York TRACON
02:08PM 40.5500 -73.5500 311° West 170 196 3,000 -120 Level New York TRACON
02:09PM 40.5667 -73.6000 294° West 168 193 2,800 -600 Descending New York TRACON
02:10PM 40.6000 -73.6500 311° West 165 190 1,900 -900 Descending New York TRACON
02:11PM 40.6167 -73.7000 294° West 136 157 1,100 -720 Descending New York TRACON
02:12PM 40.6333 -73.7333 303° West 121 139 500 -600 Descending New York TRACON